sensor_id;sensor_type;location;lat;lon;timestamp;pressure;altitude;pressure_sealevel;temperature;humidity
13348;BME280;6743;49.934;9.138;2023-01-27T00:01:26;100878.00;;;0.05;100.00
13348;BME280;6743;49.934;9.138;2023-01-27T00:04:03;100878.66;;;0.08;100.00
13348;BME280;6743;49.934;9.138;2023-01-27T00:06:40;100879.56;;;0.07;100.00
13348;BME280;6743;49.934;9.138;2023-01-27T00:09:17;100876.16;;;0.07;100.00
13348;BME280;6743;49.934;9.138;2023-01-27T00:11:47;100868.31;;;0.07;100.00
13348;BME280;6743;49.934;9.138;2023-01-27T00:14:31;100877.72;;;0.09;100.00
13348;BME280;6743;49.934;9.138;2023-01-27T00:16:58;100873.63;;;0.05;100.00
13348;BME280;6743;49.934;9.138;2023-01-27T00:19:24;100875.19;;;0.08;100.00
13348;BME280;6743;49.934;9.138;2023-01-27T00:21:51;100865.94;;;0.02;100.00
13348;BME280;6743;49.934;9.138;2023-01-27T00:24:38;100859.53;;;0.08;100.00
13348;BME280;6743;49.934;9.138;2023-01-27T00:27:06;100861.41;;;0.06;100.00
13348;BME280;6743;49.934;9.138;2023-01-27T00:29:33;100864.88;;;0.06;100.00
13348;BME280;6743;49.934;9.138;2023-01-27T00:32:00;100850.13;;;0.05;100.00
13348;BME280;6743;49.934;9.138;2023-01-27T00:34:44;100859.66;;;0.06;100.00
13348;BME280;6743;49.934;9.138;2023-01-27T00:37:10;100849.94;;;0.08;100.00
13348;BME280;6743;49.934;9.138;2023-01-27T00:39:36;100844.75;;;0.08;100.00
13348;BME280;6743;49.934;9.138;2023-01-27T00:42:02;100844.59;;;0.11;100.00
13348;BME280;6743;49.934;9.138;2023-01-27T00:44:28;100846.28;;;0.12;100.00
13348;BME280;6743;49.934;9.138;2023-01-27T00:46:54;100845.34;;;0.13;100.00
13348;BME280;6743;49.934;9.138;2023-01-27T00:49:21;100853.06;;;0.15;100.00
13348;BME280;6743;49.934;9.138;2023-01-27T00:51:47;100853.91;;;0.15;100.00
13348;BME280;6743;49.934;9.138;2023-01-27T00:54:13;100849.47;;;0.17;100.00
13348;BME280;6743;49.934;9.138;2023-01-27T00:56:39;100849.38;;;0.19;100.00
13348;BME280;6743;49.934;9.138;2023-01-27T00:59:05;100846.00;;;0.17;100.00
13348;BME280;6743;49.934;9.138;2023-01-27T01:01:32;100850.13;;;0.21;100.00
13348;BME280;6743;49.934;9.138;2023-01-27T01:03:59;100850.87;;;0.23;100.00
13348;BME280;6743;49.934;9.138;2023-01-27T01:06:26;100849.19;;;0.22;100.00
13348;BME280;6743;49.934;9.138;2023-01-27T01:08:52;100851.72;;;0.23;100.00
13348;BME280;6743;49.934;9.138;2023-01-27T01:11:19;100849.12;;;0.23;100.00
13348;BME280;6743;49.934;9.138;2023-01-27T01:13:46;100852.56;;;0.24;100.00
13348;BME280;6743;49.934;9.138;2023-01-27T01:16:14;100850.72;;;0.26;100.00
13348;BME280;6743;49.934;9.138;2023-01-27T01:18:41;100861.16;;;0.26;100.00
13348;BME280;6743;49.934;9.138;2023-01-27T01:21:08;100862.94;;;0.25;100.00
13348;BME280;6743;49.934;9.138;2023-01-27T01:23:37;100855.09;;;0.25;100.00
13348;BME280;6743;49.934;9.138;2023-01-27T01:26:04;100865.53;;;0.25;100.00
13348;BME280;6743;49.934;9.138;2023-01-27T01:28:30;100858.62;;;0.24;100.00
13348;BME280;6743;49.934;9.138;2023-01-27T01:30:56;100863.84;;;0.24;100.00
13348;BME280;6743;49.934;9.138;2023-01-27T01:33:28;100863.84;;;0.24;100.00
13348;BME280;6743;49.934;9.138;2023-01-27T01:35:54;100864.63;;;0.26;100.00
13348;BME280;6743;49.934;9.138;2023-01-27T01:38:19;100860.13;;;0.28;100.00
13348;BME280;6743;49.934;9.138;2023-01-27T01:40:46;100862.75;;;0.28;100.00
13348;BME280;6743;49.934;9.138;2023-01-27T01:43:14;100863.59;;;0.29;100.00
13348;BME280;6743;49.934;9.138;2023-01-27T01:45:52;100857.44;;;0.30;100.00
13348;BME280;6743;49.934;9.138;2023-01-27T01:48:31;100860.91;;;0.30;100.00
13348;BME280;6743;49.934;9.138;2023-01-27T01:51:00;100871.34;;;0.30;100.00
13348;BME280;6743;49.934;9.138;2023-01-27T01:53:32;100844.91;;;0.21;100.00
13348;BME280;6743;49.934;9.138;2023-01-27T01:56:06;100864.44;;;0.29;100.00
13348;BME280;6743;49.934;9.138;2023-01-27T01:58:34;100861.81;;;0.29;100.00
13348;BME280;6743;49.934;9.138;2023-01-27T02:01:03;100863.50;;;0.30;100.00
13348;BME280;6743;49.934;9.138;2023-01-27T02:03:34;100862.66;;;0.30;100.00
13348;BME280;6743;49.934;9.138;2023-01-27T02:06:03;100845.66;;;0.23;100.00
13348;BME280;6743;49.934;9.138;2023-01-27T02:08:33;100846.25;;;0.28;100.00
13348;BME280;6743;49.934;9.138;2023-01-27T02:11:02;100846.25;;;0.28;100.00
13348;BME280;6743;49.934;9.138;2023-01-27T02:13:28;100854.91;;;0.28;100.00
13348;BME280;6743;49.934;9.138;2023-01-27T02:15:54;100847.94;;;0.29;100.00
13348;BME280;6743;49.934;9.138;2023-01-27T02:18:20;100843.56;;;0.29;100.00
13348;BME280;6743;49.934;9.138;2023-01-27T02:20:48;100837.50;;;0.29;100.00
13348;BME280;6743;49.934;9.138;2023-01-27T02:23:23;100843.56;;;0.29;100.00
13348;BME280;6743;49.934;9.138;2023-01-27T02:25:54;100843.56;;;0.29;100.00
13348;BME280;6743;49.934;9.138;2023-01-27T02:28:21;100841.78;;;0.30;100.00
13348;BME280;6743;49.934;9.138;2023-01-27T02:30:50;100839.19;;;0.30;100.00
13348;BME280;6743;49.934;9.138;2023-01-27T02:33:16;100843.47;;;0.31;100.00
13348;BME280;6743;49.934;9.138;2023-01-27T02:35:47;100840.87;;;0.31;100.00
13348;BME280;6743;49.934;9.138;2023-01-27T02:38:17;100835.00;;;0.27;100.00
13348;BME280;6743;49.934;9.138;2023-01-27T02:40:45;100846.84;;;0.33;100.00
13348;BME280;6743;49.934;9.138;2023-01-27T02:43:14;100845.16;;;0.32;100.00
13348;BME280;6743;49.934;9.138;2023-01-27T02:45:39;100830.09;;;0.21;100.00
13348;BME280;6743;49.934;9.138;2023-01-27T02:48:05;100847.78;;;0.32;100.00
13348;BME280;6743;49.934;9.138;2023-01-27T02:50:31;100853.84;;;0.32;100.00
13348;BME280;6743;49.934;9.138;2023-01-27T02:52:57;100848.62;;;0.32;100.00
13348;BME280;6743;49.934;9.138;2023-01-27T02:55:23;100849.47;;;0.33;100.00
13348;BME280;6743;49.934;9.138;2023-01-27T02:57:49;100857.28;;;0.33;100.00
13348;BME280;6743;49.934;9.138;2023-01-27T03:00:17;100852.06;;;0.33;100.00
13348;BME280;6743;49.934;9.138;2023-01-27T03:02:43;100851.16;;;0.34;100.00
13348;BME280;6743;49.934;9.138;2023-01-27T03:05:09;100850.47;;;0.30;100.00
13348;BME280;6743;49.934;9.138;2023-01-27T03:07:35;100856.38;;;0.34;100.00
13348;BME280;6743;49.934;9.138;2023-01-27T03:10:00;100854.69;;;0.33;100.00
13348;BME280;6743;49.934;9.138;2023-01-27T03:12:26;100863.34;;;0.33;100.00
13348;BME280;6743;49.934;9.138;2023-01-27T03:14:52;100858.13;;;0.33;100.00
13348;BME280;6743;49.934;9.138;2023-01-27T03:17:37;100863.34;;;0.33;100.00
13348;BME280;6743;49.934;9.138;2023-01-27T03:20:22;100865.97;;;0.33;100.00
13348;BME280;6743;49.934;9.138;2023-01-27T03:22:48;100865.03;;;0.34;100.00
13348;BME280;6743;49.934;9.138;2023-01-27T03:25:15;100856.25;;;0.35;100.00
13348;BME280;6743;49.934;9.138;2023-01-27T03:27:41;100853.66;;;0.35;100.00
13348;BME280;6743;49.934;9.138;2023-01-27T03:30:08;100865.03;;;0.34;100.00
13348;BME280;6743;49.934;9.138;2023-01-27T03:32:34;100866.69;;;0.35;100.00
13348;BME280;6743;49.934;9.138;2023-01-27T03:35:03;100868.47;;;0.35;100.00
13348;BME280;6743;49.934;9.138;2023-01-27T03:37:30;100863.16;;;0.36;100.00
13348;BME280;6743;49.934;9.138;2023-01-27T03:40:15;100864.00;;;0.37;100.00
13348;BME280;6743;49.934;9.138;2023-01-27T03:43:00;100864.00;;;0.37;100.00
13348;BME280;6743;49.934;9.138;2023-01-27T03:45:46;100848.78;;;0.29;100.00
13348;BME280;6743;49.934;9.138;2023-01-27T03:48:31;100866.63;;;0.37;100.00
13348;BME280;6743;49.934;9.138;2023-01-27T03:50:58;100866.63;;;0.37;100.00
13348;BME280;6743;49.934;9.138;2023-01-27T03:53:25;100870.91;;;0.38;100.00
13348;BME280;6743;49.934;9.138;2023-01-27T03:55:50;100869.16;;;0.38;100.00
13348;BME280;6743;49.934;9.138;2023-01-27T03:58:19;100860.47;;;0.38;100.00
13348;BME280;6743;49.934;9.138;2023-01-27T04:00:46;100870.00;;;0.39;100.00
13348;BME280;6743;49.934;9.138;2023-01-27T04:03:12;100861.41;;;0.37;100.00
13348;BME280;6743;49.934;9.138;2023-01-27T04:05:56;100861.31;;;0.38;100.00
13348;BME280;6743;49.934;9.138;2023-01-27T04:08:42;100865.62;;;0.39;100.00
13348;BME280;6743;49.934;9.138;2023-01-27T04:11:08;100864.69;;;0.41;100.00
13348;BME280;6743;49.934;9.138;2023-01-27T04:13:52;100871.69;;;0.40;100.00
13348;BME280;6743;49.934;9.138;2023-01-27T04:16:18;100876.91;;;0.40;100.00
13348;BME280;6743;49.934;9.138;2023-01-27T04:18:45;100874.31;;;0.40;100.00
13348;BME280;6743;49.934;9.138;2023-01-27T04:21:11;100884.75;;;0.40;100.00
13348;BME280;6743;49.934;9.138;2023-01-27T04:23:37;100876.22;;;0.36;100.00
13348;BME280;6743;49.934;9.138;2023-01-27T04:26:04;100868.81;;;0.29;100.00
13348;BME280;6743;49.934;9.138;2023-01-27T04:28:30;100891.72;;;0.39;100.00
13348;BME280;6743;49.934;9.138;2023-01-27T04:30:57;100884.81;;;0.38;100.00
13348;BME280;6743;49.934;9.138;2023-01-27T04:33:23;100887.44;;;0.38;100.00
13348;BME280;6743;49.934;9.138;2023-01-27T04:35:49;100885.66;;;0.39;100.00
13348;BME280;6743;49.934;9.138;2023-01-27T04:38:15;100890.03;;;0.38;100.00
13348;BME280;6743;49.934;9.138;2023-01-27T04:40:42;100885.75;;;0.37;100.00
13348;BME280;6743;49.934;9.138;2023-01-27T04:43:09;100885.66;;;0.39;100.00
13348;BME280;6743;49.934;9.138;2023-01-27T04:45:35;100877.41;;;0.31;100.00
13348;BME280;6743;49.934;9.138;2023-01-27T04:48:01;100888.28;;;0.39;100.00
13348;BME280;6743;49.934;9.138;2023-01-27T04:50:27;100890.87;;;0.39;100.00
13348;BME280;6743;49.934;9.138;2023-01-27T04:52:53;100892.56;;;0.40;100.00
13348;BME280;6743;49.934;9.138;2023-01-27T04:55:19;100889.97;;;0.40;100.00
13348;BME280;6743;49.934;9.138;2023-01-27T04:57:45;100899.56;;;0.39;100.00
13348;BME280;6743;49.934;9.138;2023-01-27T05:00:13;100896.88;;;0.41;100.00
13348;BME280;6743;49.934;9.138;2023-01-27T05:02:39;100899.47;;;0.41;100.00
13348;BME280;6743;49.934;9.138;2023-01-27T05:05:06;100896.88;;;0.41;100.00
13348;BME280;6743;49.934;9.138;2023-01-27T05:07:32;100899.47;;;0.41;100.00
13348;BME280;6743;49.934;9.138;2023-01-27T05:09:58;100901.25;;;0.41;100.00
13348;BME280;6743;49.934;9.138;2023-01-27T05:12:24;100904.69;;;0.41;100.00
13348;BME280;6743;49.934;9.138;2023-01-27T05:14:50;100910.72;;;0.42;100.00
13348;BME280;6743;49.934;9.138;2023-01-27T05:17:16;100908.97;;;0.42;100.00
13348;BME280;6743;49.934;9.138;2023-01-27T05:19:42;100914.19;;;0.42;100.00
13348;BME280;6743;49.934;9.138;2023-01-27T05:22:08;100912.41;;;0.43;100.00
13348;BME280;6743;49.934;9.138;2023-01-27T05:24:35;100915.03;;;0.43;100.00
13348;BME280;6743;49.934;9.138;2023-01-27T05:27:02;100907.97;;;0.45;100.00
13348;BME280;6743;49.934;9.138;2023-01-27T05:29:29;100917.47;;;0.46;100.00
13348;BME280;6743;49.934;9.138;2023-01-27T05:31:55;100899.78;;;0.35;100.00
13348;BME280;6743;49.934;9.138;2023-01-27T05:34:22;100919.16;;;0.47;100.00
13348;BME280;6743;49.934;9.138;2023-01-27T05:36:48;100907.81;;;0.48;100.00
13348;BME280;6743;49.934;9.138;2023-01-27T05:39:14;100901.25;;;0.41;100.00
13348;BME280;6743;49.934;9.138;2023-01-27T05:41:40;100913.03;;;0.48;100.00
13348;BME280;6743;49.934;9.138;2023-01-27T05:44:08;100920.88;;;0.48;100.00
13348;BME280;6743;49.934;9.138;2023-01-27T05:46:37;100922.53;;;0.49;100.00
13348;BME280;6743;49.934;9.138;2023-01-27T05:49:04;100919.84;;;0.50;100.00
13348;BME280;6743;49.934;9.138;2023-01-27T05:51:33;100905.63;;;0.40;100.00
13348;BME280;6743;49.934;9.138;2023-01-27T05:54:00;100916.47;;;0.48;100.00
13348;BME280;6743;49.934;9.138;2023-01-27T05:56:26;100915.53;;;0.49;100.00
13348;BME280;6743;49.934;9.138;2023-01-27T05:58:53;100906.97;;;0.47;100.00
13348;BME280;6743;49.934;9.138;2023-01-27T06:01:21;100912.91;;;0.49;100.00
13348;BME280;6743;49.934;9.138;2023-01-27T06:03:48;100908.53;;;0.50;100.00
13348;BME280;6743;49.934;9.138;2023-01-27T06:06:16;100919.91;;;0.49;100.00
13348;BME280;6743;49.934;9.138;2023-01-27T06:08:43;100916.56;;;0.47;100.00
13348;BME280;6743;49.934;9.138;2023-01-27T06:11:10;100927.06;;;0.45;100.00
13348;BME280;6743;49.934;9.138;2023-01-27T06:13:36;100924.47;;;0.45;100.00
13348;BME280;6743;49.934;9.138;2023-01-27T06:16:04;100927.06;;;0.45;100.00
13348;BME280;6743;49.934;9.138;2023-01-27T06:18:31;100905.13;;;0.33;100.00
13348;BME280;6743;49.934;9.138;2023-01-27T06:20:57;100923.47;;;0.48;100.00
13348;BME280;6743;49.934;9.138;2023-01-27T06:23:23;100904.94;;;0.36;100.00
13348;BME280;6743;49.934;9.138;2023-01-27T06:25:50;100934.91;;;0.45;100.00
13348;BME280;6743;49.934;9.138;2023-01-27T06:28:16;100926.06;;;0.32;100.00
13348;BME280;6743;49.934;9.138;2023-01-27T06:30:42;100946.53;;;0.39;100.00
13348;BME280;6743;49.934;9.138;2023-01-27T06:33:10;100947.44;;;0.38;100.00
13348;BME280;6743;49.934;9.138;2023-01-27T06:35:38;100946.75;;;0.35;100.00
13348;BME280;6743;49.934;9.138;2023-01-27T06:38:07;100956.22;;;0.37;100.00
13348;BME280;6743;49.934;9.138;2023-01-27T06:40:34;100952.69;;;0.38;100.00
13348;BME280;6743;49.934;9.138;2023-01-27T06:43:01;100950.84;;;0.41;100.00
13348;BME280;6743;49.934;9.138;2023-01-27T06:45:27;100950.00;;;0.40;100.00
13348;BME280;6743;49.934;9.138;2023-01-27T06:47:54;100954.38;;;0.39;100.00
13348;BME280;6743;49.934;9.138;2023-01-27T06:50:20;100962.13;;;0.41;100.00
13348;BME280;6743;49.934;9.138;2023-01-27T06:52:46;100956.06;;;0.41;100.00
13348;BME280;6743;49.934;9.138;2023-01-27T06:55:12;100965.66;;;0.40;100.00
13348;BME280;6743;49.934;9.138;2023-01-27T06:57:39;100962.19;;;0.39;100.00
13348;BME280;6743;49.934;9.138;2023-01-27T07:00:07;100967.41;;;0.39;100.00
13348;BME280;6743;49.934;9.138;2023-01-27T07:02:33;100959.59;;;0.39;100.00
13348;BME280;6743;49.934;9.138;2023-01-27T07:04:59;100945.25;;;0.31;100.00
13348;BME280;6743;49.934;9.138;2023-01-27T07:07:25;100970.03;;;0.39;100.00
13348;BME280;6743;49.934;9.138;2023-01-27T07:09:51;100975.16;;;0.41;100.00
13348;BME280;6743;49.934;9.138;2023-01-27T07:12:17;100974.22;;;0.42;100.00
13348;BME280;6743;49.934;9.138;2023-01-27T07:14:43;100982.03;;;0.42;100.00
13348;BME280;6743;49.934;9.138;2023-01-27T07:17:10;100988.97;;;0.43;100.00
13348;BME280;6743;49.934;9.138;2023-01-27T07:19:35;100985.50;;;0.43;100.00
13348;BME280;6743;49.934;9.138;2023-01-27T07:22:01;100984.66;;;0.42;100.00
13348;BME280;6743;49.934;9.138;2023-01-27T07:24:27;100985.50;;;0.43;100.00
13348;BME280;6743;49.934;9.138;2023-01-27T07:26:53;100988.88;;;0.45;100.00
13348;BME280;6743;49.934;9.138;2023-01-27T07:29:19;100984.44;;;0.47;100.00
13348;BME280;6743;49.934;9.138;2023-01-27T07:31:45;100986.97;;;0.48;100.00
13348;BME280;6743;49.934;9.138;2023-01-27T07:34:12;100986.00;;;0.49;100.00
13348;BME280;6743;49.934;9.138;2023-01-27T07:36:38;100996.37;;;0.51;100.00
13348;BME280;6743;49.934;9.138;2023-01-27T07:39:04;100993.78;;;0.51;100.00
13348;BME280;6743;49.934;9.138;2023-01-27T07:41:30;100991.09;;;0.52;100.00
13348;BME280;6743;49.934;9.138;2023-01-27T07:43:56;100989.31;;;0.53;100.00
13348;BME280;6743;49.934;9.138;2023-01-27T07:46:22;100996.97;;;0.56;100.00
13348;BME280;6743;49.934;9.138;2023-01-27T07:48:48;100993.34;;;0.58;100.00
13348;BME280;6743;49.934;9.138;2023-01-27T07:51:14;100998.50;;;0.60;100.00
13348;BME280;6743;49.934;9.138;2023-01-27T07:53:41;101003.53;;;0.63;100.00
13348;BME280;6743;49.934;9.138;2023-01-27T07:56:07;101002.53;;;0.65;100.00
13348;BME280;6743;49.934;9.138;2023-01-27T07:58:36;101000.69;;;0.67;100.00
13348;BME280;6743;49.934;9.138;2023-01-27T08:01:04;101007.63;;;0.68;100.00
13348;BME280;6743;49.934;9.138;2023-01-27T08:03:30;100998.50;;;0.60;100.00
13348;BME280;6743;49.934;9.138;2023-01-27T08:05:56;101022.19;;;0.72;100.00
13348;BME280;6743;49.934;9.138;2023-01-27T08:08:22;101004.38;;;0.63;100.00
13348;BME280;6743;49.934;9.138;2023-01-27T08:10:48;101028.09;;;0.76;100.00
13348;BME280;6743;49.934;9.138;2023-01-27T08:13:15;101025.47;;;0.76;100.00
13348;BME280;6743;49.934;9.138;2023-01-27T08:15:41;101012.06;;;0.66;100.00
13348;BME280;6743;49.934;9.138;2023-01-27T08:18:08;101040.13;;;0.78;100.00
13348;BME280;6743;49.934;9.138;2023-01-27T08:20:34;101039.28;;;0.78;100.00
13348;BME280;6743;49.934;9.138;2023-01-27T08:23:00;101036.59;;;0.79;100.00
13348;BME280;6743;49.934;9.138;2023-01-27T08:25:26;101038.28;;;0.81;100.00
13348;BME280;6743;49.934;9.138;2023-01-27T08:27:54;101035.59;;;0.82;100.00
13348;BME280;6743;49.934;9.138;2023-01-27T08:30:21;101022.09;;;0.74;100.00
13348;BME280;6743;49.934;9.138;2023-01-27T08:32:47;101024.63;;;0.75;100.00
13348;BME280;6743;49.934;9.138;2023-01-27T08:35:13;101035.41;;;0.85;100.00
13348;BME280;6743;49.934;9.138;2023-01-27T08:37:39;101023.94;;;0.88;100.00
13348;BME280;6743;49.934;9.138;2023-01-27T08:40:06;101032.56;;;0.90;100.00
13348;BME280;6743;49.934;9.138;2023-01-27T08:42:33;101035.06;;;0.91;100.00
13348;BME280;6743;49.934;9.138;2023-01-27T08:44:59;101045.44;;;0.93;100.00
13348;BME280;6743;49.934;9.138;2023-01-27T08:47:25;101048.81;;;0.95;100.00
13348;BME280;6743;49.934;9.138;2023-01-27T08:49:51;101041.22;;;0.90;100.00
13348;BME280;6743;49.934;9.138;2023-01-27T08:52:18;101055.62;;;0.97;100.00
13348;BME280;6743;49.934;9.138;2023-01-27T08:54:44;101057.22;;;1.00;100.00
13348;BME280;6743;49.934;9.138;2023-01-27T08:57:10;101059.78;;;1.01;100.00
13348;BME280;6743;49.934;9.138;2023-01-27T08:59:37;101070.16;;;1.03;100.00
13348;BME280;6743;49.934;9.138;2023-01-27T09:02:03;101068.38;;;1.03;100.00
13348;BME280;6743;49.934;9.138;2023-01-27T09:04:29;101066.50;;;1.05;100.00
13348;BME280;6743;49.934;9.138;2023-01-27T09:06:55;101075.09;;;1.07;100.00
13348;BME280;6743;49.934;9.138;2023-01-27T09:09:21;101075.09;;;1.07;100.00
13348;BME280;6743;49.934;9.138;2023-01-27T09:11:47;101077.66;;;1.09;100.00
13348;BME280;6743;49.934;9.138;2023-01-27T09:14:13;101088.94;;;1.09;100.00
13348;BME280;6743;49.934;9.138;2023-01-27T09:16:39;101084.44;;;1.11;100.00
13348;BME280;6743;49.934;9.138;2023-01-27T09:19:06;101084.28;;;1.14;100.00
13348;BME280;6743;49.934;9.138;2023-01-27T09:21:32;101079.72;;;1.18;100.00
13348;BME280;6743;49.934;9.138;2023-01-27T09:23:57;101088.25;;;1.22;100.00
13348;BME280;6743;49.934;9.138;2023-01-27T09:26:23;101097.72;;;1.24;100.00
13348;BME280;6743;49.934;9.138;2023-01-27T09:28:50;101094.00;;;1.28;100.00
13348;BME280;6743;49.934;9.138;2023-01-27T09:31:16;101090.25;;;1.32;100.00
13348;BME280;6743;49.934;9.138;2023-01-27T09:33:42;101069.78;;;1.25;100.00
13348;BME280;6743;49.934;9.138;2023-01-27T09:36:10;101086.47;;;1.38;100.00
13348;BME280;6743;49.934;9.138;2023-01-27T09:38:42;101082.09;;;1.38;100.00
13348;BME280;6743;49.934;9.138;2023-01-27T09:41:39;101089.75;;;1.41;100.00
13348;BME280;6743;49.934;9.138;2023-01-27T09:44:25;101093.06;;;1.45;100.00
13348;BME280;6743;49.934;9.138;2023-01-27T09:47:14;101097.09;;;1.50;100.00
13348;BME280;6743;49.934;9.138;2023-01-27T09:50:05;101102.81;;;1.57;100.00
13348;BME280;6743;49.934;9.138;2023-01-27T09:52:59;101104.31;;;1.61;100.00
13348;BME280;6743;49.934;9.138;2023-01-27T09:55:34;101110.22;;;1.65;100.00
13348;BME280;6743;49.934;9.138;2023-01-27T09:58:08;101109.31;;;1.66;100.00
13348;BME280;6743;49.934;9.138;2023-01-27T10:00:47;101108.34;;;1.67;100.00
13348;BME280;6743;49.934;9.138;2023-01-27T10:03:39;101098.00;;;1.65;100.00
13348;BME280;6743;49.934;9.138;2023-01-27T10:06:45;101103.12;;;1.67;100.00
13348;BME280;6743;49.934;9.138;2023-01-27T10:12:18;101096.59;;;1.74;100.00
13348;BME280;6743;49.934;9.138;2023-01-27T10:14:58;101092.06;;;1.77;100.00
13348;BME280;6743;49.934;9.138;2023-01-27T10:17:35;101097.22;;;1.79;100.00
13348;BME280;6743;49.934;9.138;2023-01-27T10:20:16;101088.59;;;1.77;100.00
13348;BME280;6743;49.934;9.138;2023-01-27T10:22:51;101085.91;;;1.78;100.00
13348;BME280;6743;49.934;9.138;2023-01-27T10:25:28;101086.75;;;1.79;100.00
13348;BME280;6743;49.934;9.138;2023-01-27T10:27:58;101094.47;;;1.80;100.00
13348;BME280;6743;49.934;9.138;2023-01-27T10:30:31;101067.19;;;1.70;100.00
13348;BME280;6743;49.934;9.138;2023-01-27T10:33:03;101087.75;;;1.76;100.00
13348;BME280;6743;49.934;9.138;2023-01-27T10:35:38;101095.53;;;1.78;100.00
13348;BME280;6743;49.934;9.138;2023-01-27T10:38:12;101084.22;;;1.77;100.00
13348;BME280;6743;49.934;9.138;2023-01-27T10:40:48;101092.06;;;1.77;100.00
13348;BME280;6743;49.934;9.138;2023-01-27T10:43:22;101091.00;;;1.80;100.00
13348;BME280;6743;49.934;9.138;2023-01-27T10:45:54;101085.53;;;1.84;100.00
13348;BME280;6743;49.934;9.138;2023-01-27T10:48:35;101078.44;;;1.86;100.00
13348;BME280;6743;49.934;9.138;2023-01-27T10:51:08;101078.34;;;1.88;100.00
13348;BME280;6743;49.934;9.138;2023-01-27T10:53:43;101081.72;;;1.90;100.00
13348;BME280;6743;49.934;9.138;2023-01-27T10:56:17;101056.28;;;1.78;100.00
13348;BME280;6743;49.934;9.138;2023-01-27T10:58:54;101078.09;;;1.92;100.00
13348;BME280;6743;49.934;9.138;2023-01-27T11:01:26;101080.59;;;1.94;100.00
13348;BME280;6743;49.934;9.138;2023-01-27T11:03:57;101051.34;;;1.87;100.00
13348;BME280;6743;49.934;9.138;2023-01-27T11:06:28;101068.09;;;1.99;100.00
13348;BME280;6743;49.934;9.138;2023-01-27T11:09:02;101072.28;;;2.02;100.00
13348;BME280;6743;49.934;9.138;2023-01-27T11:11:29;101066.97;;;2.03;100.00
13348;BME280;6743;49.934;9.138;2023-01-27T11:14:20;101051.09;;;1.92;100.00
13348;BME280;6743;49.934;9.138;2023-01-27T11:16:49;101056.88;;;1.97;100.00
13348;BME280;6743;49.934;9.138;2023-01-27T11:19:23;101075.41;;;2.08;100.00
13348;BME280;6743;49.934;9.138;2023-01-27T11:21:53;101075.31;;;2.10;100.00
13348;BME280;6743;49.934;9.138;2023-01-27T11:24:25;101069.06;;;2.12;100.00
13348;BME280;6743;49.934;9.138;2023-01-27T11:26:59;101071.41;;;2.17;100.00
13348;BME280;6743;49.934;9.138;2023-01-27T11:29:32;101068.69;;;2.18;100.00
13348;BME280;6743;49.934;9.138;2023-01-27T11:32:06;101071.13;;;2.21;100.00
13348;BME280;6743;49.934;9.138;2023-01-27T11:34:41;101070.09;;;2.24;100.00
13348;BME280;6743;49.934;9.138;2023-01-27T11:37:16;101062.91;;;2.27;100.00
13348;BME280;6743;49.934;9.138;2023-01-27T11:39:44;101057.69;;;2.27;100.00
13348;BME280;6743;49.934;9.138;2023-01-27T11:42:10;101049.63;;;2.30;100.00
13348;BME280;6743;49.934;9.138;2023-01-27T11:44:37;101047.75;;;2.32;100.00
13348;BME280;6743;49.934;9.138;2023-01-27T11:47:06;101054.69;;;2.33;100.00
13348;BME280;6743;49.934;9.138;2023-01-27T11:49:35;101042.31;;;2.35;100.00
13348;BME280;6743;49.934;9.138;2023-01-27T11:52:09;101050.75;;;2.41;100.00
13348;BME280;6743;49.934;9.138;2023-01-27T11:54:39;101048.03;;;2.42;100.00
13348;BME280;6743;49.934;9.138;2023-01-27T11:57:16;101046.09;;;2.46;100.00
13348;BME280;6743;49.934;9.138;2023-01-27T11:59:44;101037.22;;;2.48;100.00
13348;BME280;6743;49.934;9.138;2023-01-27T12:02:21;101047.47;;;2.51;100.00
13348;BME280;6743;49.934;9.138;2023-01-27T12:04:56;101050.09;;;2.51;100.00
13348;BME280;6743;49.934;9.138;2023-01-27T12:07:33;101049.84;;;2.56;100.00
13348;BME280;6743;49.934;9.138;2023-01-27T12:10:01;101046.06;;;2.60;100.00
13348;BME280;6743;49.934;9.138;2023-01-27T12:12:28;101053.47;;;2.67;100.00
13348;BME280;6743;49.934;9.138;2023-01-27T12:14:56;101048.78;;;2.72;100.00
13348;BME280;6743;49.934;9.138;2023-01-27T12:17:29;101043.22;;;2.77;100.00
13348;BME280;6743;49.934;9.138;2023-01-27T12:19:59;101036.22;;;2.77;100.00
13348;BME280;6743;49.934;9.138;2023-01-27T12:22:31;101038.97;;;2.76;100.00
13348;BME280;6743;49.934;9.138;2023-01-27T12:24:59;101038.00;;;2.77;100.00
13348;BME280;6743;49.934;9.138;2023-01-27T12:27:34;101044.94;;;2.78;100.00
13348;BME280;6743;49.934;9.138;2023-01-27T12:30:07;101037.91;;;2.78;100.00
13348;BME280;6743;49.934;9.138;2023-01-27T12:32:43;101034.34;;;2.80;100.00
13348;BME280;6743;49.934;9.138;2023-01-27T12:35:19;101029.19;;;2.78;100.00
13348;BME280;6743;49.934;9.138;2023-01-27T12:37:46;101032.56;;;2.80;100.00
13348;BME280;6743;49.934;9.138;2023-01-27T12:40:17;101031.66;;;2.81;100.00
13348;BME280;6743;49.934;9.138;2023-01-27T12:42:48;101031.56;;;2.83;100.00
13348;BME280;6743;49.934;9.138;2023-01-27T12:45:24;101029.78;;;2.83;100.00
13348;BME280;6743;49.934;9.138;2023-01-27T12:48:01;101028.81;;;2.84;100.00
13348;BME280;6743;49.934;9.138;2023-01-27T12:50:41;101029.78;;;2.83;100.00
13348;BME280;6743;49.934;9.138;2023-01-27T12:53:11;101023.69;;;2.83;100.00
13348;BME280;6743;49.934;9.138;2023-01-27T12:55:39;101030.41;;;2.87;100.00
13348;BME280;6743;49.934;9.138;2023-01-27T12:58:27;101033.03;;;2.87;100.00
13348;BME280;6743;49.934;9.138;2023-01-27T13:00:54;101026.00;;;2.87;100.00
13348;BME280;6743;49.934;9.138;2023-01-27T13:03:22;101031.16;;;2.89;100.00
13348;BME280;6743;49.934;9.138;2023-01-27T13:05:51;101032.94;;;2.88;100.00
13348;BME280;6743;49.934;9.138;2023-01-27T13:08:18;101034.63;;;2.89;100.00
13348;BME280;6743;49.934;9.138;2023-01-27T13:10:49;101036.41;;;2.89;100.00
13348;BME280;6743;49.934;9.138;2023-01-27T13:13:19;101037.34;;;2.88;100.00
13348;BME280;6743;49.934;9.138;2023-01-27T13:15:51;101044.34;;;2.87;100.00